Time;durP1;ratioP1;P1;durP2;ratioP2;P2;SDS_P1;SDS_P2;PMS_P1;PMS_P2;Temp;Humidity;BMP_temperature;BMP_pressure;BME280_temperature;BME280_humidity;BME280_pressure;Samples;Min_cycle;Max_cycle;Signal;HPM_P1;HPM_P2
2022/09/20 00:01:16;;;;;;;6.95;6.45;;;;;;;;;;5040187;28;20366;-68
2022/09/20 00:03:44;;;;;;;7.13;6.63;;;;;;;;;;5037937;28;20034;-67
2022/09/20 00:06:13;;;;;;;7.85;7.28;;;;;;;;;;5041423;28;20025;-67
2022/09/20 00:08:39;;;;;;;6.80;6.30;;;;;;;;;;5037303;28;20021;-67
2022/09/20 00:11:07;;;;;;;8.00;6.65;;;;;;;;;;5035753;28;20033;-68
2022/09/20 00:13:34;;;;;;;7.05;6.55;;;;;;;;;;5042099;28;20083;-67
2022/09/20 00:16:04;;;;;;;6.72;6.22;;;;;;;;;;5040963;28;20343;-67
2022/09/20 00:18:29;;;;;;;6.30;5.90;;;;;;;;;;5038325;28;20061;-67
2022/09/20 00:20:54;;;;;;;7.03;6.53;;;;;;;;;;5036479;28;20060;-67
2022/09/20 00:23:20;;;;;;;6.22;5.82;;;;;;;;;;5037462;28;20032;-67
2022/09/20 00:25:54;;;;;;;7.30;6.80;;;;;;;;;;5059835;28;20108;-67
2022/09/20 00:28:20;;;;;;;6.82;6.32;;;;;;;;;;5038412;28;20095;-67
2022/09/20 00:30:45;;;;;;;7.82;7.22;;;;;;;;;;5039348;28;20471;-67
2022/09/20 00:33:10;;;;;;;6.72;6.22;;;;;;;;;;5036658;28;20037;-67
2022/09/20 00:35:36;;;;;;;6.15;5.75;;;;;;;;;;5038064;28;20078;-67
2022/09/20 00:38:01;;;;;;;6.10;5.70;;;;;;;;;;5040510;28;20112;-67
2022/09/20 00:40:26;;;;;;;6.72;6.22;;;;;;;;;;5040087;28;20044;-66
2022/09/20 00:42:52;;;;;;;8.25;7.25;;;;;;;;;;5039075;28;20053;-66
2022/09/20 00:45:23;;;;;;;6.57;6.07;;;;;;;;;;5040556;28;20512;-67
2022/09/20 00:47:59;;;;;;;6.18;5.78;;;;;;;;;;5039331;28;20036;-67
2022/09/20 00:51:00;;;;;;;6.30;5.90;;;;;;;;;;5037179;28;20107;-68
2022/09/20 00:53:30;;;;;;;6.15;5.75;;;;;;;;;;5038031;28;20040;-68
2022/09/20 00:56:02;;;;;;;7.03;6.53;;;;;;;;;;5037560;28;20048;-68
2022/09/20 00:58:30;;;;;;;5.80;5.40;;;;;;;;;;5035486;28;20112;-68
2022/09/20 01:00:56;;;;;;;6.65;6.15;;;;;;;;;;5035257;28;20059;-68
2022/09/20 01:03:25;;;;;;;6.57;6.10;;;;;;;;;;5036741;28;20352;-67
2022/09/20 01:05:52;;;;;;;7.55;6.95;;;;;;;;;;5037794;28;20060;-67
2022/09/20 01:08:18;;;;;;;6.60;6.10;;;;;;;;;;5036880;28;20029;-68
2022/09/20 01:10:44;;;;;;;7.18;6.57;;;;;;;;;;5038668;28;20025;-67
2022/09/20 01:13:09;;;;;;;6.80;6.30;;;;;;;;;;5035533;28;20033;-68
2022/09/20 01:15:37;;;;;;;7.05;6.55;;;;;;;;;;5039736;28;20358;-67
2022/09/20 01:18:05;;;;;;;6.93;6.35;;;;;;;;;;5040519;28;20108;-67
2022/09/20 01:20:36;;;;;;;7.00;6.50;;;;;;;;;;5043471;28;20409;-67
2022/09/20 01:23:22;;;;;;;6.75;6.25;;;;;;;;;;5037208;28;20064;-66
2022/09/20 01:25:56;;;;;;;6.88;6.38;;;;;;;;;;5040503;28;20029;-67
2022/09/20 01:28:22;;;;;;;6.45;6.05;;;;;;;;;;5074082;28;20041;-67
2022/09/20 01:31:14;;;;;;;6.88;6.38;;;;;;;;;;5042763;28;20037;-67
2022/09/20 01:34:00;;;;;;;6.50;6.10;;;;;;;;;;5040059;28;20107;-67
2022/09/20 01:36:53;;;;;;;6.75;6.25;;;;;;;;;;5037947;28;20034;-68
2022/09/20 01:39:43;;;;;;;7.22;6.72;;;;;;;;;;5009203;28;20386;-68
2022/09/20 01:42:11;;;;;;;7.10;6.60;;;;;;;;;;5044596;28;20124;-68
2022/09/20 01:45:02;;;;;;;7.28;6.78;;;;;;;;;;5042071;28;20412;-67
2022/09/20 01:47:30;;;;;;;7.13;6.60;;;;;;;;;;5041400;28;20483;-68
2022/09/20 01:50:09;;;;;;;8.25;7.68;;;;;;;;;;5045507;28;20033;-68
2022/09/20 01:52:49;;;;;;;7.75;7.25;;;;;;;;;;5042407;28;20033;-68
2022/09/20 01:55:27;;;;;;;6.97;6.47;;;;;;;;;;5038567;28;20120;-68
2022/09/20 01:58:27;;;;;;;7.05;6.55;;;;;;;;;;5040146;28;20083;-68
2022/09/20 02:01:14;;;;;;;7.40;6.90;;;;;;;;;;5010628;28;20042;-68
2022/09/20 02:03:45;;;;;;;8.73;8.13;;;;;;;;;;5039881;28;20047;-67
2022/09/20 02:06:38;;;;;;;7.20;6.70;;;;;;;;;;5043430;28;20497;-67
2022/09/20 02:09:29;;;;;;;7.72;7.22;;;;;;;;;;5041253;28;20037;-68
2022/09/20 02:12:10;;;;;;;;;;;;;;;;;;5041850;28;20064;-67
2022/09/20 02:14:48;;;;;;;7.32;6.82;;;;;;;;;;5040351;28;19913;-68
2022/09/20 02:17:26;;;;;;;8.18;7.68;;;;;;;;;;5041152;28;20037;-67
2022/09/20 02:20:07;;;;;;;8.07;7.57;;;;;;;;;;5045123;28;20029;-67
2022/09/20 02:22:55;;;;;;;7.90;7.40;;;;;;;;;;5039814;28;20546;-67
2022/09/20 02:25:28;;;;;;;7.93;7.43;;;;;;;;;;5038361;28;20033;-67
2022/09/20 02:28:29;;;;;;;7.55;7.05;;;;;;;;;;5040922;28;20463;-68
2022/09/20 02:31:14;;;;;;;8.48;7.93;;;;;;;;;;5040439;28;20024;-67
2022/09/20 02:34:07;;;;;;;7.35;6.85;;;;;;;;;;5040179;28;20409;-67
2022/09/20 02:36:51;;;;;;;7.90;7.40;;;;;;;;;;5040331;28;20486;-67
2022/09/20 02:39:26;;;;;;;8.30;7.80;;;;;;;;;;5071922;28;20070;-67
2022/09/20 02:41:54;;;;;;;8.15;7.65;;;;;;;;;;5039595;28;20037;-67
2022/09/20 02:44:53;;;;;;;8.18;7.57;;;;;;;;;;5041595;28;20517;-67
2022/09/20 02:47:19;;;;;;;7.55;7.05;;;;;;;;;;5041097;28;20373;-68
2022/09/20 02:49:59;;;;;;;9.60;9.00;;;;;;;;;;5039836;28;20451;-67
2022/09/20 02:52:50;;;;;;;7.80;7.30;;;;;;;;;;5041675;28;20037;-67
2022/09/20 02:55:42;;;;;;;9.57;8.98;;;;;;;;;;5038117;28;20040;-67
2022/09/20 02:58:32;;;;;;;8.60;8.10;;;;;;;;;;5039824;28;20132;-67
2022/09/20 03:01:23;;;;;;;9.05;8.45;;;;;;;;;;5040666;28;20040;-67
2022/09/20 03:04:00;;;;;;;9.50;8.90;;;;;;;;;;5041359;28;20463;-67
2022/09/20 03:06:30;;;;;;;10.18;9.48;;;;;;;;;;5040932;28;20038;-67
2022/09/20 03:09:05;;;;;;;10.10;9.40;;;;;;;;;;5039916;28;20025;-67
2022/09/20 03:11:38;;;;;;;10.82;10.13;;;;;;;;;;5042823;28;20459;-67
2022/09/20 03:14:21;;;;;;;9.90;9.30;;;;;;;;;;5040178;28;20451;-67
2022/09/20 03:17:15;;;;;;;10.98;10.27;;;;;;;;;;5037862;28;20036;-67
2022/09/20 03:20:11;;;;;;;10.48;9.77;;;;;;;;;;5037311;28;20034;-67
2022/09/20 03:23:04;;;;;;;9.68;9.07;;;;;;;;;;5039801;28;20163;-68
2022/09/20 03:25:40;;;;;;;9.80;9.20;;;;;;;;;;5042416;28;20032;-67
2022/09/20 03:28:25;;;;;;;12.98;11.93;;;;;;;;;;5037767;28;20035;-68
2022/09/20 03:31:06;;;;;;;11.63;10.73;;;;;;;;;;5039910;28;20033;-67
2022/09/20 03:33:49;;;;;;;9.32;8.52;;;;;;;;;;5041002;28;20041;-68
2022/09/20 03:36:32;;;;;;;7.90;7.40;;;;;;;;;;5040079;28;20494;-67
2022/09/20 03:39:34;;;;;;;8.75;8.18;;;;;;;;;;5039548;28;20612;-67
2022/09/20 03:42:18;;;;;;;8.40;7.90;;;;;;;;;;5040107;28;20100;-67
2022/09/20 03:44:46;;;;;;;9.60;8.75;;;;;;;;;;5038818;28;20105;-67
2022/09/20 03:47:43;;;;;;;8.63;7.97;;;;;;;;;;5040004;28;20466;-67
2022/09/20 03:50:42;;;;;;;8.20;7.70;;;;;;;;;;5038316;28;20037;-68
2022/09/20 03:53:35;;;;;;;8.25;7.72;;;;;;;;;;5041028;28;20041;-68
2022/09/20 03:56:12;;;;;;;8.18;7.63;;;;;;;;;;5038199;28;20455;-67
2022/09/20 03:58:44;;;;;;;7.75;7.25;;;;;;;;;;5037464;28;20037;-67
2022/09/20 04:01:49;;;;;;;8.48;7.95;;;;;;;;;;5039733;28;20029;-67
2022/09/20 04:04:33;;;;;;;8.00;7.50;;;;;;;;;;5033730;28;20080;-68
2022/09/20 04:07:23;;;;;;;8.30;7.80;;;;;;;;;;5038318;28;20033;-67
2022/09/20 04:10:19;;;;;;;8.05;7.55;;;;;;;;;;5075005;28;20432;-67
2022/09/20 04:13:15;;;;;;;8.85;8.25;;;;;;;;;;5039786;28;20120;-68
2022/09/20 04:16:05;;;;;;;8.98;8.38;;;;;;;;;;5040304;28;20104;-67
2022/09/20 04:18:49;;;;;;;8.30;7.70;;;;;;;;;;5026228;28;20071;-68
2022/09/20 04:21:23;;;;;;;8.43;7.93;;;;;;;;;;5038498;28;20513;-67
2022/09/20 04:23:48;;;;;;;7.47;6.88;;;;;;;;;;5073562;28;20404;-67
2022/09/20 04:26:37;;;;;;;7.85;7.25;;;;;;;;;;5038894;28;20174;-67
2022/09/20 04:29:21;;;;;;;7.88;7.38;;;;;;;;;;5040639;28;20048;-68
2022/09/20 04:32:02;;;;;;;7.53;7.03;;;;;;;;;;5071260;28;20392;-68
2022/09/20 04:37:28;;;;;;;8.37;7.77;;;;;;;;;;5038813;28;20048;-67
2022/09/20 04:40:22;;;;;;;6.85;6.35;;;;;;;;;;5036145;28;20076;-67
2022/09/20 04:43:09;;;;;;;6.43;5.95;;;;;;;;;;5038403;28;20037;-68
2022/09/20 04:46:04;;;;;;;7.22;6.35;;;;;;;;;;5051957;28;20358;-68
2022/09/20 04:48:42;;;;;;;6.68;6.18;;;;;;;;;;5038437;28;20034;-68
2022/09/20 04:51:28;;;;;;;6.50;6.00;;;;;;;;;;5044144;28;20048;-67
2022/09/20 04:54:35;;;;;;;7.10;6.60;;;;;;;;;;5041711;28;20091;-67
2022/09/20 04:57:09;;;;;;;7.97;7.45;;;;;;;;;;5042333;28;20032;-68
2022/09/20 05:00:02;;;;;;;7.70;7.20;;;;;;;;;;5041483;28;20033;-67
2022/09/20 05:02:50;;;;;;;8.13;7.60;;;;;;;;;;5045265;28;20025;-67
2022/09/20 05:05:39;;;;;;;7.57;7.07;;;;;;;;;;5042799;28;20494;-70
2022/09/20 05:08:39;;;;;;;8.32;7.70;;;;;;;;;;5042379;28;20044;-67
2022/09/20 05:11:16;;;;;;;7.38;6.88;;;;;;;;;;5042000;28;20148;-67
2022/09/20 05:14:19;;;;;;;6.70;6.20;;;;;;;;;;5041604;28;20041;-68
2022/09/20 05:17:05;;;;;;;8.07;7.38;;;;;;;;;;5041609;28;20434;-68
2022/09/20 05:19:43;;;;;;;7.53;7.03;;;;;;;;;;5043799;28;20029;-68
2022/09/20 05:22:20;;;;;;;6.82;6.32;;;;;;;;;;5042398;28;20025;-67
2022/09/20 05:25:20;;;;;;;6.93;6.43;;;;;;;;;;5041818;28;20051;-67
2022/09/20 05:28:05;;;;;;;6.70;6.20;;;;;;;;;;5043660;28;20039;-67
2022/09/20 05:30:41;;;;;;;6.53;6.10;;;;;;;;;;5040508;28;20102;-67
2022/09/20 05:33:19;;;;;;;6.72;6.22;;;;;;;;;;5040618;28;20048;-67
2022/09/20 05:36:00;;;;;;;7.50;7.00;;;;;;;;;;5039977;28;20048;-67
2022/09/20 05:38:42;;;;;;;7.03;6.53;;;;;;;;;;5042153;28;20068;-67
2022/09/20 05:41:31;;;;;;;6.70;6.20;;;;;;;;;;5043019;28;20127;-67
2022/09/20 05:44:18;;;;;;;6.28;5.82;;;;;;;;;;5040524;28;20140;-68
2022/09/20 05:47:08;;;;;;;7.40;6.70;;;;;;;;;;5042979;28;20025;-67
2022/09/20 05:49:40;;;;;;;7.53;6.82;;;;;;;;;;5043103;28;20041;-68
2022/09/20 05:52:11;;;;;;;8.63;7.88;;;;;;;;;;5036478;28;20037;-67
2022/09/20 05:54:48;;;;;;;7.03;6.47;;;;;;;;;;5042933;28;20033;-67
2022/09/20 05:57:19;;;;;;;7.32;6.82;;;;;;;;;;5042107;28;20032;-67
2022/09/20 06:00:03;;;;;;;7.38;6.85;;;;;;;;;;5041223;28;20036;-68
2022/09/20 06:02:37;;;;;;;8.70;8.10;;;;;;;;;;5039773;28;20488;-66
2022/09/20 06:05:09;;;;;;;7.93;7.43;;;;;;;;;;5040070;28;20033;-67
2022/09/20 06:07:53;;;;;;;7.45;6.95;;;;;;;;;;5039933;28;20045;-67
2022/09/20 06:10:38;;;;;;;7.45;6.95;;;;;;;;;;5040231;28;20083;-68
2022/09/20 06:13:19;;;;;;;7.63;7.13;;;;;;;;;;5041043;28;20426;-68
2022/09/20 06:16:05;;;;;;;7.88;7.38;;;;;;;;;;5053331;28;20367;-67
2022/09/20 06:18:42;;;;;;;7.85;7.25;;;;;;;;;;5041529;28;20037;-68
2022/09/20 06:21:30;;;;;;;8.20;7.63;;;;;;;;;;5042330;28;20036;-66
2022/09/20 06:23:59;;;;;;;8.50;7.90;;;;;;;;;;5038735;28;20351;-67
2022/09/20 06:26:28;;;;;;;11.60;8.80;;;;;;;;;;5043847;28;20072;-66
2022/09/20 06:28:57;;;;;;;9.77;9.10;;;;;;;;;;5043144;28;20104;-66
2022/09/20 06:31:22;;;;;;;9.98;9.27;;;;;;;;;;5042511;28;20370;-66
2022/09/20 06:33:59;;;;;;;10.35;9.68;;;;;;;;;;5042697;28;20033;-65
2022/09/20 06:42:26;;;;;;;10.20;9.55;;;;;;;;;;5042250;28;20112;-66
2022/09/20 06:44:52;;;;;;;9.10;8.50;;;;;;;;;;5039771;28;20033;-66
2022/09/20 06:47:17;;;;;;;10.07;9.38;;;;;;;;;;5039209;28;20120;-66
2022/09/20 06:49:45;;;;;;;10.80;10.10;;;;;;;;;;5042558;28;20439;-66
2022/09/20 06:52:16;;;;;;;11.15;10.45;;;;;;;;;;5040489;28;20065;-66
2022/09/20 06:54:44;;;;;;;11.15;10.45;;;;;;;;;;5042190;28;20112;-66
2022/09/20 06:57:13;;;;;;;11.25;10.55;;;;;;;;;;5043482;28;20056;-66
2022/09/20 06:59:38;;;;;;;11.13;10.43;;;;;;;;;;5039745;28;20037;-66
2022/09/20 07:02:04;;;;;;;10.77;10.07;;;;;;;;;;5042100;28;20108;-66
2022/09/20 07:04:29;;;;;;;12.15;11.40;;;;;;;;;;5042781;28;20478;-66
2022/09/20 07:07:03;;;;;;;11.23;10.52;;;;;;;;;;5040793;28;20040;-67
2022/09/20 07:09:28;;;;;;;8.95;8.35;;;;;;;;;;5041937;28;20115;-66
2022/09/20 07:11:54;;;;;;;8.15;7.65;;;;;;;;;;5069371;28;20463;-65
2022/09/20 07:14:21;;;;;;;7.40;6.90;;;;;;;;;;5038279;28;20044;-65
2022/09/20 07:16:47;;;;;;;8.13;7.53;;;;;;;;;;5040979;28;20037;-66
2022/09/20 07:19:12;;;;;;;7.00;6.50;;;;;;;;;;5040287;28;20048;-66
2022/09/20 07:21:37;;;;;;;6.70;6.20;;;;;;;;;;5038964;28;20104;-66
2022/09/20 07:24:03;;;;;;;7.38;6.85;;;;;;;;;;5041916;28;20366;-67
2022/09/20 07:26:29;;;;;;;6.03;5.63;;;;;;;;;;5041187;28;20025;-66
2022/09/20 07:28:56;;;;;;;6.95;6.45;;;;;;;;;;5039939;28;20037;-67
2022/09/20 07:31:24;;;;;;;6.57;6.10;;;;;;;;;;5039056;28;20037;-66
2022/09/20 07:33:49;;;;;;;8.68;6.63;;;;;;;;;;5037855;28;20029;-67
2022/09/20 07:36:18;;;;;;;5.80;5.40;;;;;;;;;;5042701;28;20047;-67
2022/09/20 07:38:51;;;;;;;7.30;6.65;;;;;;;;;;5037061;28;20040;-67
2022/09/20 07:41:18;;;;;;;7.50;6.80;;;;;;;;;;5036477;28;20037;-67
2022/09/20 07:43:44;;;;;;;6.75;6.25;;;;;;;;;;5037620;28;20025;-67
2022/09/20 07:46:12;;;;;;;6.40;5.95;;;;;;;;;;5038741;28;20358;-71
2022/09/20 07:48:38;;;;;;;6.43;5.93;;;;;;;;;;5040365;28;20032;-71
2022/09/20 07:51:14;;;;;;;5.97;5.57;;;;;;;;;;5040177;28;20129;-66
2022/09/20 07:53:40;;;;;;;7.95;7.35;;;;;;;;;;5070254;28;20465;-65
2022/09/20 07:56:14;;;;;;;6.22;5.82;;;;;;;;;;5037929;28;20041;-67
2022/09/20 07:58:40;;;;;;;6.28;5.78;;;;;;;;;;5036034;28;20025;-67
2022/09/20 08:01:08;;;;;;;5.80;5.40;;;;;;;;;;5038910;28;20039;-69
2022/09/20 08:03:34;;;;;;;7.28;6.78;;;;;;;;;;5039760;28;20114;-69
2022/09/20 08:06:04;;;;;;;7.70;6.45;;;;;;;;;;5038212;28;20056;-69
2022/09/20 08:08:37;;;;;;;6.15;5.72;;;;;;;;;;5035802;28;20091;-69
2022/09/20 08:11:08;;;;;;;6.43;5.93;;;;;;;;;;5037658;28;20036;-66
2022/09/20 08:13:35;;;;;;;;;;;;;;;;;;5039925;28;20037;-67
2022/09/20 08:16:06;;;;;;;6.38;5.82;;;;;;;;;;5036850;28;19913;-67
2022/09/20 08:18:33;;;;;;;7.93;7.28;;;;;;;;;;5036136;28;20044;-67
2022/09/20 08:21:05;;;;;;;6.97;6.45;;;;;;;;;;5039425;28;20167;-70
2022/09/20 08:23:34;;;;;;;7.38;6.88;;;;;;;;;;5040403;28;20036;-70
2022/09/20 08:26:01;;;;;;;8.00;6.20;;;;;;;;;;5068772;28;20048;-67
2022/09/20 08:28:28;;;;;;;7.95;7.35;;;;;;;;;;5038364;28;20040;-68
2022/09/20 08:31:03;;;;;;;7.55;7.05;;;;;;;;;;5039731;28;20025;-72
2022/09/20 08:33:29;;;;;;;7.43;6.93;;;;;;;;;;5037582;28;20699;-70
2022/09/20 08:35:54;;;;;;;7.07;6.57;;;;;;;;;;5037485;28;20090;-69
2022/09/20 08:38:25;;;;;;;7.57;7.03;;;;;;;;;;5035661;28;20029;-68
2022/09/20 08:40:50;;;;;;;7.65;7.15;;;;;;;;;;5038124;28;20040;-69
2022/09/20 08:43:16;;;;;;;7.47;6.88;;;;;;;;;;5040767;28;20033;-68
2022/09/20 08:45:42;;;;;;;6.85;6.35;;;;;;;;;;5037761;28;20045;-69
2022/09/20 08:48:14;;;;;;;6.95;6.43;;;;;;;;;;5039152;28;20447;-68
2022/09/20 08:50:40;;;;;;;6.60;6.10;;;;;;;;;;5039196;28;20029;-68
2022/09/20 08:53:12;;;;;;;7.30;6.70;;;;;;;;;;5042674;28;20033;-68
2022/09/20 08:55:42;;;;;;;6.63;6.15;;;;;;;;;;5040174;28;20528;-67
2022/09/20 08:58:11;;;;;;;7.60;7.00;;;;;;;;;;5036509;28;20400;-67
2022/09/20 09:00:38;;;;;;;6.60;6.10;;;;;;;;;;5039434;28;20021;-68
2022/09/20 09:03:06;;;;;;;7.15;6.55;;;;;;;;;;5035970;28;20037;-70
2022/09/20 09:05:34;;;;;;;8.80;7.38;;;;;;;;;;5037085;28;20052;-68
2022/09/20 09:08:06;;;;;;;7.10;6.60;;;;;;;;;;5051887;28;20112;-68
2022/09/20 09:10:37;;;;;;;7.68;7.18;;;;;;;;;;5046167;28;20110;-69
2022/09/20 09:13:04;;;;;;;8.90;8.18;;;;;;;;;;5041621;28;20048;-67
2022/09/20 09:15:33;;;;;;;11.27;10.32;;;;;;;;;;5042083;28;20068;-69
2022/09/20 09:17:59;;;;;;;15.27;8.90;;;;;;;;;;5039183;28;20485;-66
2022/09/20 09:20:25;;;;;;;12.23;11.48;;;;;;;;;;5037574;28;20029;-67
2022/09/20 09:23:03;;;;;;;24.15;22.67;;;;;;;;;;5039341;28;20136;-67
2022/09/20 09:25:37;;;;;;;15.57;14.68;;;;;;;;;;5038641;28;20180;-65
2022/09/20 09:28:13;;;;;;;17.48;16.15;;;;;;;;;;5044187;28;20032;-67
2022/09/20 09:30:45;;;;;;;15.60;14.70;;;;;;;;;;5039315;28;20018;-67
2022/09/20 09:33:24;;;;;;;8.27;7.75;;;;;;;;;;5041351;28;20033;-68
2022/09/20 09:36:07;;;;;;;12.75;11.95;;;;;;;;;;5037391;28;20041;-68
2022/09/20 09:38:39;;;;;;;12.02;11.32;;;;;;;;;;5045284;28;20701;-66
2022/09/20 09:41:28;;;;;;;16.35;15.40;;;;;;;;;;5042490;28;20493;-67
2022/09/20 09:44:08;;;;;;;9.00;8.40;;;;;;;;;;5042968;28;20463;-67
2022/09/20 09:46:36;;;;;;;17.10;14.25;;;;;;;;;;5044071;28;20075;-66
2022/09/20 09:49:23;;;;;;;20.95;19.85;;;;;;;;;;5041425;28;20112;-67
2022/09/20 09:52:02;;;;;;;21.40;20.25;;;;;;;;;;5040012;28;20158;-67
2022/09/20 09:54:35;;;;;;;25.48;24.13;;;;;;;;;;5045819;28;20028;-66
2022/09/20 09:57:14;;;;;;;25.27;23.92;;;;;;;;;;5038389;28;20467;-66
2022/09/20 09:59:58;;;;;;;23.30;22.08;;;;;;;;;;5038173;28;20037;-66
2022/09/20 10:02:48;;;;;;;23.48;22.20;;;;;;;;;;5072456;28;20036;-67
2022/09/20 10:05:23;;;;;;;26.88;25.45;;;;;;;;;;5042553;28;20182;-73
2022/09/20 10:08:01;;;;;;;24.08;22.75;;;;;;;;;;5043809;28;20088;-73
2022/09/20 10:10:42;;;;;;;23.83;22.58;;;;;;;;;;5042658;28;20029;-73
2022/09/20 10:13:31;;;;;;;24.60;23.30;;;;;;;;;;5040964;28;20103;-73
2022/09/20 10:16:13;;;;;;;25.38;24.02;;;;;;;;;;5041686;28;20037;-74
2022/09/20 10:18:52;;;;;;;25.52;24.17;;;;;;;;;;5041600;28;20048;-74
2022/09/20 10:21:27;;;;;;;25.25;23.92;;;;;;;;;;5041935;28;20103;-73
2022/09/20 10:24:45;;;;;;;24.92;23.63;;;;;;;;;;5044833;28;20064;-74
2022/09/20 10:27:24;;;;;;;27.92;26.48;;;;;;;;;;4960935;28;20055;-74
2022/09/20 10:29:59;;;;;;;25.58;24.23;;;;;;;;;;4963186;28;20428;-74
2022/09/20 10:32:44;;;;;;;32.10;30.30;;;;;;;;;;5015826;28;20395;-76
2022/09/20 10:35:28;;;;;;;28.52;26.88;;;;;;;;;;5039706;28;20210;-73
2022/09/20 10:38:12;;;;;;;29.65;28.05;;;;;;;;;;5037407;28;20083;-74
2022/09/20 10:44:05;;;;;;;22.67;21.48;;;;;;;;;;5041173;28;20120;-74
2022/09/20 10:46:37;;;;;;;30.10;28.55;;;;;;;;;;5025455;28;20056;-74
2022/09/20 10:49:14;;;;;;;27.23;25.73;;;;;;;;;;5040365;28;20037;-74
2022/09/20 10:52:05;;;;;;;24.33;23.02;;;;;;;;;;5042663;28;20045;-72
2022/09/20 10:54:40;;;;;;;22.25;21.05;;;;;;;;;;5041801;28;20057;-72
2022/09/20 10:57:41;;;;;;;19.65;18.52;;;;;;;;;;5041309;28;20043;-73
2022/09/20 11:00:25;;;;;;;21.20;19.75;;;;;;;;;;5041367;28;20059;-73
2022/09/20 11:03:12;;;;;;;19.80;18.70;;;;;;;;;;5040927;28;20324;-74
2022/09/20 11:06:05;;;;;;;20.38;19.27;;;;;;;;;;5041894;28;20021;-74
2022/09/20 11:08:34;;;;;;;20.17;19.08;;;;;;;;;;5042068;28;20030;-74
2022/09/20 11:11:11;;;;;;;20.80;19.70;;;;;;;;;;5040007;28;20037;-74
2022/09/20 11:13:48;;;;;;;21.33;20.17;;;;;;;;;;5044477;28;20359;-74
2022/09/20 11:16:29;;;;;;;21.70;20.52;;;;;;;;;;5038412;28;20116;-75
2022/09/20 11:19:33;;;;;;;20.13;19.02;;;;;;;;;;5044046;28;20041;-75
2022/09/20 11:22:07;;;;;;;18.48;17.48;;;;;;;;;;5042684;28;20070;-74
2022/09/20 11:24:37;;;;;;;19.13;18.10;;;;;;;;;;5041543;28;20047;-71
2022/09/20 11:27:24;;;;;;;19.70;18.60;;;;;;;;;;5039974;28;20040;-74
2022/09/20 11:30:00;;;;;;;16.10;15.20;;;;;;;;;;5044321;28;20021;-76
2022/09/20 11:32:33;;;;;;;14.90;14.10;;;;;;;;;;5042428;28;20053;-75
2022/09/20 11:35:21;;;;;;;17.45;16.45;;;;;;;;;;5038761;28;20059;-75
2022/09/20 11:38:10;;;;;;;18.38;17.38;;;;;;;;;;5033615;28;20064;-74
2022/09/20 11:40:51;;;;;;;22.02;20.77;;;;;;;;;;5044339;28;20047;-75
2022/09/20 11:43:17;;;;;;;21.92;20.73;;;;;;;;;;5040060;28;20084;-74
2022/09/20 11:45:44;;;;;;;21.15;20.02;;;;;;;;;;5040870;28;20083;-74
2022/09/20 11:48:20;;;;;;;19.80;18.70;;;;;;;;;;5041266;28;20025;-75
2022/09/20 11:50:45;;;;;;;21.48;20.27;;;;;;;;;;5042291;28;20053;-75
2022/09/20 11:53:41;;;;;;;23.92;22.63;;;;;;;;;;5039544;28;20075;-72
2022/09/20 11:56:16;;;;;;;22.48;21.27;;;;;;;;;;5040820;28;20025;-75
2022/09/20 11:58:50;;;;;;;25.10;23.77;;;;;;;;;;5035389;28;20076;-74
2022/09/20 12:01:32;;;;;;;25.20;23.80;;;;;;;;;;5039689;28;20044;-74
2022/09/20 12:04:23;;;;;;;28.73;27.23;;;;;;;;;;5038264;28;20332;-74
2022/09/20 12:06:59;;;;;;;;;;;;;;;;;;5044091;28;20469;-73
2022/09/20 12:09:32;;;;;;;19.92;18.83;;;;;;;;;;5041958;28;20235;-74
2022/09/20 12:12:11;;;;;;;20.23;19.13;;;;;;;;;;5039990;28;20029;-74
2022/09/20 12:14:37;;;;;;;23.52;22.23;;;;;;;;;;5036881;28;20415;-74
2022/09/20 12:17:02;;;;;;;23.40;22.15;;;;;;;;;;5038143;28;20044;-73
2022/09/20 12:19:35;;;;;;;22.83;21.38;;;;;;;;;;5039410;28;20118;-74
2022/09/20 12:22:00;;;;;;;29.08;27.52;;;;;;;;;;5039872;28;20094;-74
2022/09/20 12:24:34;;;;;;;27.80;26.27;;;;;;;;;;5037813;28;20112;-73
2022/09/20 12:27:26;;;;;;;26.60;25.20;;;;;;;;;;5042826;28;20458;-71
2022/09/20 12:30:03;;;;;;;30.02;28.40;;;;;;;;;;5037900;28;20512;-72
2022/09/20 12:32:56;;;;;;;31.20;29.60;;;;;;;;;;5041419;28;20116;-69
2022/09/20 12:35:43;;;;;;;28.60;27.10;;;;;;;;;;5032331;28;20041;-71
2022/09/20 12:38:20;;;;;;;24.10;22.83;;;;;;;;;;5042652;28;20106;-72
2022/09/20 12:41:07;;;;;;;28.40;26.92;;;;;;;;;;5038939;28;20060;-71
2022/09/20 12:43:34;;;;;;;23.48;22.17;;;;;;;;;;5038461;28;20037;-71
2022/09/20 12:46:01;;;;;;;23.08;21.85;;;;;;;;;;5038131;28;20056;-72
2022/09/20 12:48:31;;;;;;;26.20;24.75;;;;;;;;;;5039478;28;20451;-73
2022/09/20 12:54:10;;;;;;;20.40;19.30;;;;;;;;;;5074622;28;20033;-72
2022/09/20 12:56:38;;;;;;;19.08;18.08;;;;;;;;;;5037960;28;20460;-73
2022/09/20 12:59:19;;;;;;;23.13;21.90;;;;;;;;;;5039802;28;20033;-74
2022/09/20 13:01:45;;;;;;;19.77;18.67;;;;;;;;;;5040286;28;20026;-74
2022/09/20 13:04:40;;;;;;;26.63;25.23;;;;;;;;;;5040125;28;20039;-74
2022/09/20 13:07:32;;;;;;;32.08;30.40;;;;;;;;;;5038974;28;20064;-74
2022/09/20 13:10:01;;;;;;;27.88;26.38;;;;;;;;;;5036543;28;20037;-74
2022/09/20 13:12:27;;;;;;;28.67;27.15;;;;;;;;;;5043179;28;20408;-74
2022/09/20 13:14:53;;;;;;;38.40;36.45;;;;;;;;;;5041973;28;20094;-74
2022/09/20 13:17:26;;;;;;;24.60;23.30;;;;;;;;;;5040258;28;20060;-75
2022/09/20 13:19:52;;;;;;;16.17;15.27;;;;;;;;;;5041036;28;20113;-72
2022/09/20 13:22:29;;;;;;;18.70;17.70;;;;;;;;;;5074703;28;20135;-71
2022/09/20 13:25:01;;;;;;;24.80;23.50;;;;;;;;;;5040669;28;20113;-70
2022/09/20 13:27:33;;;;;;;23.85;22.52;;;;;;;;;;5041524;28;20037;-72
2022/09/20 13:30:31;;;;;;;23.83;22.52;;;;;;;;;;5041016;28;20049;-71
2022/09/20 13:33:31;;;;;;;21.08;19.88;;;;;;;;;;5031734;28;20056;-72
2022/09/20 13:35:57;;;;;;;19.50;18.40;;;;;;;;;;5043401;28;20206;-72
2022/09/20 13:38:28;;;;;;;21.48;19.95;;;;;;;;;;5039853;28;20080;-71
2022/09/20 13:41:02;;;;;;;18.27;17.08;;;;;;;;;;5040827;28;20057;-72
2022/09/20 13:43:42;;;;;;;15.63;14.55;;;;;;;;;;5042285;28;20034;-72
2022/09/20 13:46:13;;;;;;;17.63;16.37;;;;;;;;;;5042746;28;20033;-71
2022/09/20 13:48:39;;;;;;;;;;;;;;;;;;5044300;28;20294;-71
2022/09/20 13:51:22;;;;;;;15.02;14.15;;;;;;;;;;5042750;28;20349;-69
2022/09/20 13:53:47;;;;;;;17.63;16.45;;;;;;;;;;5040496;28;20033;-71
2022/09/20 13:56:25;;;;;;;17.98;16.98;;;;;;;;;;5044842;28;20088;-72
2022/09/20 13:58:51;;;;;;;14.52;13.73;;;;;;;;;;5041053;28;20037;-70
2022/09/20 14:01:25;;;;;;;14.90;14.02;;;;;;;;;;5040574;28;20094;-70
2022/09/20 14:03:52;;;;;;;13.93;13.13;;;;;;;;;;5040305;28;20030;-71
2022/09/20 14:06:26;;;;;;;14.82;14.00;;;;;;;;;;5040659;28;20040;-72
2022/09/20 14:08:53;;;;;;;15.57;14.68;;;;;;;;;;5042689;28;20122;-72
2022/09/20 14:11:23;;;;;;;15.13;14.23;;;;;;;;;;5038406;28;20040;-72
2022/09/20 14:14:01;;;;;;;16.75;15.75;;;;;;;;;;5040571;28;20029;-71
2022/09/20 14:16:30;;;;;;;18.52;17.52;;;;;;;;;;5040729;28;20079;-71
2022/09/20 14:18:57;;;;;;;18.42;17.42;;;;;;;;;;5057735;28;20034;-71
2022/09/20 14:21:26;;;;;;;17.83;16.83;;;;;;;;;;5036507;28;20032;-70
2022/09/20 14:24:01;;;;;;;17.67;16.67;;;;;;;;;;5038838;28;20057;-72
2022/09/20 14:26:28;;;;;;;19.92;18.83;;;;;;;;;;5044347;28;20428;-70
2022/09/20 14:28:54;;;;;;;22.45;21.15;;;;;;;;;;5040471;28;20087;-71
2022/09/20 14:31:27;;;;;;;19.33;18.27;;;;;;;;;;5039483;28;20030;-71
2022/09/20 14:33:56;;;;;;;20.27;19.17;;;;;;;;;;5042805;28;20022;-71
2022/09/20 14:36:25;;;;;;;19.05;18.02;;;;;;;;;;5039990;28;20036;-70
2022/09/20 14:38:54;;;;;;;21.70;20.52;;;;;;;;;;5044425;28;20090;-70
2022/09/20 14:41:31;;;;;;;18.83;17.77;;;;;;;;;;5042583;28;20070;-70
2022/09/20 14:43:59;;;;;;;20.17;19.08;;;;;;;;;;5039023;28;20091;-69
2022/09/20 14:46:37;;;;;;;18.50;17.40;;;;;;;;;;5055367;28;20026;-69
2022/09/20 14:49:44;;;;;;;19.08;18.08;;;;;;;;;;5042038;28;20043;-70
2022/09/20 14:52:25;;;;;;;18.75;17.75;;;;;;;;;;4940506;29;20054;-70
2022/09/20 14:55:12;;;;;;;17.10;16.13;;;;;;;;;;4941360;29;20182;-70
2022/09/20 14:57:39;;;;;;;17.65;16.65;;;;;;;;;;5009466;28;20051;-71
2022/09/20 15:00:10;;;;;;;18.50;17.48;;;;;;;;;;5040729;28;20208;-71
2022/09/20 15:02:36;;;;;;;18.48;17.42;;;;;;;;;;5040544;28;20032;-71
2022/09/20 15:05:01;;;;;;;17.52;16.52;;;;;;;;;;5040363;28;20041;-71
2022/09/20 15:07:27;;;;;;;18.30;17.20;;;;;;;;;;5044474;28;20025;-70
2022/09/20 15:09:53;;;;;;;16.73;15.82;;;;;;;;;;5039781;28;20045;-69
2022/09/20 15:12:20;;;;;;;16.77;15.88;;;;;;;;;;5041768;28;20502;-70
2022/09/20 15:14:46;;;;;;;16.77;15.88;;;;;;;;;;5041506;28;20037;-70
2022/09/20 15:17:14;;;;;;;17.45;16.30;;;;;;;;;;5041128;28;20104;-70
2022/09/20 15:19:40;;;;;;;17.30;16.30;;;;;;;;;;5041372;28;20021;-71
2022/09/20 15:22:08;;;;;;;16.98;16.05;;;;;;;;;;5047466;28;20036;-70
2022/09/20 15:24:34;;;;;;;17.85;16.85;;;;;;;;;;5038574;28;20039;-70
2022/09/20 15:26:59;;;;;;;20.27;19.17;;;;;;;;;;5067390;28;20029;-71
2022/09/20 15:29:25;;;;;;;17.08;16.17;;;;;;;;;;5025601;28;20104;-72
2022/09/20 15:31:50;;;;;;;19.17;18.10;;;;;;;;;;5041695;28;20025;-71
2022/09/20 15:34:15;;;;;;;18.40;17.40;;;;;;;;;;5039356;28;20048;-72
2022/09/20 15:36:41;;;;;;;16.25;15.35;;;;;;;;;;5041666;28;20399;-71
2022/09/20 15:39:07;;;;;;;18.63;17.63;;;;;;;;;;5045136;28;20025;-72
2022/09/20 15:41:34;;;;;;;19.23;18.23;;;;;;;;;;5030547;28;20033;-72